Time;durP1;ratioP1;P1;durP2;ratioP2;P2;SDS_P1;SDS_P2;PMS_P1;PMS_P2;Temp;Humidity;BMP_temperature;BMP_pressure;BME280_temperature;BME280_humidity;BME280_pressure;Samples;Min_cycle;Max_cycle;Signal;HPM_P1;HPM_P2
2023/08/12 00:00:10;;;;;;;7.18;3.50;;;;;;;19.21;100.00;101521.41;5091780;28;20039;-54
2023/08/12 00:02:40;;;;;;;6.20;2.97;;;;;;;19.58;100.00;101581.59;5093115;28;20031;-54
2023/08/12 00:05:06;;;;;;;5.47;3.33;;;;;;;19.60;100.00;101572.56;5095460;28;20028;-51
2023/08/12 00:07:32;;;;;;;10.45;3.65;;;;;;;19.60;100.00;101572.56;5094985;28;20032;-51
2023/08/12 00:09:58;;;;;;;7.35;3.42;;;;;;;19.68;100.00;101569.41;5094780;28;20028;-53
2023/08/12 00:12:24;;;;;;;7.47;3.70;;;;;;;19.75;100.00;101562.78;5095369;28;20085;-55
2023/08/12 00:14:49;;;;;;;7.47;3.33;;;;;;;19.79;100.00;101563.47;5077153;28;20036;-52
2023/08/12 00:17:14;;;;;;;9.68;3.38;;;;;;;19.83;100.00;101567.66;5093776;28;20062;-56
2023/08/12 00:19:40;;;;;;;7.55;3.25;;;;;;;19.80;100.00;101547.34;5095313;28;20089;-54
2023/08/12 00:22:05;;;;;;;9.13;3.10;;;;;;;19.82;100.00;101550.75;5094991;28;20085;-52
2023/08/12 00:24:30;;;;;;;5.13;2.88;;;;;;;19.82;100.00;101564.13;5095550;28;20043;-55
2023/08/12 00:26:56;;;;;;;4.78;2.97;;;;;;;19.36;100.00;101484.97;5087680;28;20044;-54
2023/08/12 00:29:21;;;;;;;10.68;3.13;;;;;;;19.69;100.00;101544.44;5115369;28;20039;-51
2023/08/12 00:31:46;;;;;;;8.55;3.13;;;;;;;19.74;100.00;101558.38;5097106;28;20059;-49
2023/08/12 00:34:12;;;;;;;4.55;2.58;;;;;;;19.68;100.00;101540.03;5115212;28;20027;-53
2023/08/12 00:36:37;;;;;;;6.25;3.00;;;;;;;19.56;100.00;101527.41;5114647;28;20155;-53
2023/08/12 00:39:03;;;;;;;8.73;2.78;;;;;;;19.58;100.00;101547.72;5115073;28;20035;-53
2023/08/12 00:41:29;;;;;;;6.95;3.15;;;;;;;19.13;100.00;101469.41;5097102;28;20039;-51
2023/08/12 00:43:54;;;;;;;8.15;3.60;;;;;;;19.51;100.00;101541.03;5102014;28;20113;-50
2023/08/12 00:46:20;;;;;;;8.55;3.60;;;;;;;19.53;100.00;101528.44;5094922;28;20474;-52
2023/08/12 00:48:45;;;;;;;4.75;2.83;;;;;;;19.44;100.00;101520.97;5094555;28;20119;-54
2023/08/12 00:51:10;;;;;;;6.85;3.53;;;;;;;19.52;100.00;101532.09;5076481;28;20589;-54
2023/08/12 00:53:36;;;;;;;8.32;3.78;;;;;;;19.52;100.00;101526.75;5094797;28;20085;-56
2023/08/12 00:56:02;;;;;;;6.20;3.28;;;;;;;19.51;100.00;101522.34;5094233;28;20402;-53
2023/08/12 00:58:27;;;;;;;10.80;4.15;;;;;;;19.41;100.00;101505.13;5093593;28;20036;-54
2023/08/12 01:00:52;;;;;;;7.57;3.58;;;;;;;19.06;100.00;101453.75;5094497;28;20040;-56
2023/08/12 01:03:19;;;;;;;6.85;3.55;;;;;;;19.51;100.00;101533.03;5094402;28;20044;-51
2023/08/12 01:05:46;;;;;;;8.02;4.40;;;;;;;19.48;100.00;101521.66;5076418;28;20109;-52
2023/08/12 01:08:11;;;;;;;8.57;3.17;;;;;;;19.52;100.00;101521.41;5059621;28;20024;-52
2023/08/12 01:10:40;;;;;;;7.25;3.08;;;;;;;19.38;100.00;101491.94;5076224;28;20089;-55
2023/08/12 01:13:47;;;;;;;7.10;3.60;;;;;;;19.51;100.00;101522.34;5076100;28;20031;-57
2023/08/12 01:16:14;;;;;;;6.45;3.10;;;;;;;19.15;100.00;101452.38;5069955;28;20047;-52
2023/08/12 01:18:39;;;;;;;7.43;2.90;;;;;;;19.51;100.00;101514.34;5075999;28;20043;-50
2023/08/12 01:21:07;;;;;;;7.80;3.35;;;;;;;19.50;100.00;101499.25;5075841;28;20032;-49
2023/08/12 01:23:33;;;;;;;10.27;3.20;;;;;;;19.22;100.00;101445.75;5075573;28;20059;-51
2023/08/12 01:25:58;;;;;;;5.75;3.33;;;;;;;19.50;100.00;101483.22;5059080;28;20112;-51
2023/08/12 01:28:23;;;;;;;5.90;2.90;;;;;;;19.52;100.00;101476.00;5058629;28;20036;-53
2023/08/12 01:31:10;;;;;;;5.10;3.33;;;;;;;19.59;100.00;101492.50;5094132;28;20058;-51
2023/08/12 01:33:54;;;;;;;7.32;3.92;;;;;;;19.60;100.00;101496.91;5075809;28;20162;-50
2023/08/12 01:36:21;;;;;;;6.80;3.17;;;;;;;19.45;100.00;101461.28;5093843;28;20056;-50
2023/08/12 01:38:47;;;;;;;7.90;3.60;;;;;;;19.18;100.00;101413.97;5093701;28;20119;-50
2023/08/12 01:41:13;;;;;;;9.85;4.38;;;;;;;19.51;100.00;101471.63;5075613;28;20192;-52
2023/08/12 01:43:40;;;;;;;7.30;3.88;;;;;;;19.60;100.00;101484.41;5058708;28;20119;-51
2023/08/12 01:46:05;;;;;;;6.35;4.40;;;;;;;19.51;100.00;101468.94;5075394;28;20222;-51
2023/08/12 01:48:31;;;;;;;8.70;4.00;;;;;;;19.60;100.00;101483.56;5087624;28;20110;-51
2023/08/12 01:50:56;;;;;;;5.40;3.75;;;;;;;19.65;100.00;101489.47;5113854;28;20032;-51
2023/08/12 01:53:21;;;;;;;6.95;4.15;;;;;;;19.53;100.00;101453.69;5113790;28;20039;-56
2023/08/12 01:55:49;;;;;;;9.00;4.15;;;;;;;19.71;100.00;101472.22;5113434;28;20036;-54
2023/08/12 01:58:14;;;;;;;9.43;4.82;;;;;;;19.21;100.00;101385.28;5095665;28;20046;-52
2023/08/12 02:00:40;;;;;;;6.68;4.60;;;;;;;19.26;100.00;101385.03;5113858;28;20040;-54
2023/08/12 02:03:06;;;;;;;7.72;5.07;;;;;;;19.27;100.00;101384.94;5113794;28;20027;-50
2023/08/12 02:05:32;;;;;;;8.38;4.47;;;;;;;19.75;100.00;101469.28;5093040;28;20123;-52
2023/08/12 02:07:57;;;;;;;7.15;4.53;;;;;;;19.74;100.00;101462.22;5075097;28;20119;-51
2023/08/12 02:10:22;;;;;;;6.57;4.40;;;;;;;19.73;100.00;101459.66;5093206;28;20039;-51
2023/08/12 02:12:47;;;;;;;9.73;4.70;;;;;;;19.71;100.00;101451.72;5093229;28;20078;-52
2023/08/12 02:15:13;;;;;;;9.43;5.18;;;;;;;19.33;100.00;101386.38;5093081;28;20032;-52
2023/08/12 02:17:38;;;;;;;10.07;5.75;;;;;;;19.71;100.00;101434.81;5075099;28;20028;-52
2023/08/12 02:20:04;;;;;;;8.65;5.30;;;;;;;19.74;100.00;101445.31;5092399;28;20483;-51
2023/08/12 02:22:30;;;;;;;10.73;5.28;;;;;;;19.25;100.00;101362.81;5074862;28;20151;-51
2023/08/12 02:24:55;;;;;;;12.18;6.18;;;;;;;19.51;100.00;101396.84;5074248;28;20028;-54
2023/08/12 02:27:21;;;;;;;8.43;5.70;;;;;;;19.73;100.00;101441.78;5092929;28;20040;-54
2023/08/12 02:29:46;;;;;;;12.25;6.20;;;;;;;19.80;100.00;101456.50;5074732;28;20032;-53
2023/08/12 02:32:11;;;;;;;9.65;6.20;;;;;;;19.73;100.00;101431.09;5092581;28;20036;-55
2023/08/12 02:34:37;;;;;;;14.40;6.38;;;;;;;19.76;100.00;101440.75;5091718;28;20135;-50
2023/08/12 02:37:02;;;;;;;11.35;6.28;;;;;;;19.81;100.00;101442.19;5092334;28;20060;-55
2023/08/12 02:39:27;;;;;;;12.27;6.72;;;;;;;19.57;100.00;101406.28;5092455;28;20291;-51
2023/08/12 02:41:53;;;;;;;9.60;6.18;;;;;;;19.42;100.00;101378.72;5092768;28;20394;-54
2023/08/12 02:44:18;;;;;;;11.07;6.25;;;;;;;19.81;100.00;101446.69;5092685;28;20467;-53
2023/08/12 02:46:43;;;;;;;11.32;6.28;;;;;;;19.76;100.00;101438.94;5092562;28;20117;-54
2023/08/12 02:49:09;;;;;;;13.43;6.95;;;;;;;19.76;100.00;101433.59;5074285;28;20429;-52
2023/08/12 02:51:34;;;;;;;11.82;6.85;;;;;;;19.72;100.00;101424.06;5087735;28;20039;-52
2023/08/12 02:53:59;;;;;;;10.68;6.53;;;;;;;19.74;100.00;101424.81;5112564;28;20475;-52
2023/08/12 02:56:24;;;;;;;10.77;6.72;;;;;;;19.68;100.00;101419.84;5112820;28;20543;-52
2023/08/12 02:58:50;;;;;;;13.93;7.90;;;;;;;19.70;100.00;101425.13;5112833;28;20495;-51
2023/08/12 03:01:15;;;;;;;10.35;7.28;;;;;;;19.69;100.00;101420.72;5112733;28;20474;-52
2023/08/12 03:03:41;;;;;;;11.52;7.18;;;;;;;19.26;100.00;101337.84;5112567;28;20395;-49
2023/08/12 03:06:06;;;;;;;12.27;7.55;;;;;;;19.67;100.00;101420.81;5094444;28;20043;-51
2023/08/12 03:08:32;;;;;;;11.95;6.80;;;;;;;19.23;100.00;101330.03;5093457;28;20135;-50
2023/08/12 03:11:01;;;;;;;13.93;8.38;;;;;;;19.36;100.00;101348.81;5091987;28;20036;-51
2023/08/12 03:13:27;;;;;;;13.80;7.88;;;;;;;19.42;100.00;101359.16;5074393;28;20071;-52
2023/08/12 03:15:52;;;;;;;9.82;7.55;;;;;;;19.28;100.00;101324.41;5074311;28;20031;-51
2023/08/12 03:18:18;;;;;;;9.20;7.10;;;;;;;19.63;100.00;101384.56;5092188;28;20157;-54
2023/08/12 03:20:43;;;;;;;10.05;8.07;;;;;;;19.62;100.00;101373.00;5074116;28;20028;-50
2023/08/12 03:23:08;;;;;;;9.23;7.57;;;;;;;19.72;100.00;101377.78;5091428;28;20036;-52
2023/08/12 03:25:34;;;;;;;9.45;7.88;;;;;;;19.78;100.00;101385.44;5073995;28;20036;-51
2023/08/12 03:27:59;;;;;;;15.38;8.23;;;;;;;19.68;100.00;101366.44;5092386;28;20036;-51
2023/08/12 03:30:24;;;;;;;10.10;7.65;;;;;;;19.42;100.00;101327.13;5092128;28;20043;-54
2023/08/12 03:32:52;;;;;;;11.77;7.88;;;;;;;19.63;100.00;101365.88;5091885;28;20028;-51
2023/08/12 03:35:18;;;;;;;11.77;9.00;;;;;;;19.69;100.00;101384.19;5091794;28;20111;-53
2023/08/12 03:37:43;;;;;;;12.25;8.93;;;;;;;19.60;100.00;101371.38;5093733;28;20130;-52
2023/08/12 03:40:09;;;;;;;11.98;8.32;;;;;;;19.22;100.00;101290.94;5095646;28;20036;-52
2023/08/12 03:42:34;;;;;;;11.38;8.65;;;;;;;19.65;100.00;101375.50;5096106;28;20538;-50
2023/08/12 03:45:00;;;;;;;13.88;8.63;;;;;;;19.55;100.00;101363.69;5095811;28;20081;-51
2023/08/12 03:47:25;;;;;;;13.35;8.30;;;;;;;19.25;100.00;101303.25;5096134;28;20036;-53
2023/08/12 03:49:50;;;;;;;13.20;9.45;;;;;;;19.65;100.00;101374.63;5095959;28;20035;-53
2023/08/12 03:52:16;;;;;;;13.85;8.55;;;;;;;19.55;100.00;101357.47;5077535;28;20123;-52
2023/08/12 03:54:41;;;;;;;9.82;8.20;;;;;;;19.25;100.00;101301.44;5095592;28;20032;-54
2023/08/12 03:57:06;;;;;;;15.27;9.00;;;;;;;19.29;100.00;101297.63;5095326;28;20040;-50
2023/08/12 03:59:32;;;;;;;14.10;9.35;;;;;;;19.56;100.00;101352.03;5096138;28;20509;-52
2023/08/12 04:01:57;;;;;;;17.63;9.55;;;;;;;19.63;100.00;101349.84;5095677;28;20060;-54
2023/08/12 04:04:23;;;;;;;13.30;9.88;;;;;;;19.56;100.00;101332.47;5095740;28;20111;-53
2023/08/12 04:06:51;;;;;;;14.05;8.80;;;;;;;19.21;100.00;101262.53;5095577;28;20040;-52
2023/08/12 04:09:17;;;;;;;14.18;10.38;;;;;;;19.57;100.00;101315.50;5078184;28;20390;-53
2023/08/12 04:11:43;;;;;;;12.57;9.52;;;;;;;19.60;100.00;101318.84;5095624;28;20028;-51
2023/08/12 04:14:08;;;;;;;14.07;10.27;;;;;;;19.65;100.00;101335.44;5094994;28;20028;-51
2023/08/12 04:16:33;;;;;;;15.43;10.40;;;;;;;19.65;100.00;101350.59;5095510;28;20494;-50
2023/08/12 04:18:58;;;;;;;14.98;10.25;;;;;;;19.52;100.00;101318.47;5095471;28;20044;-52
2023/08/12 04:21:24;;;;;;;13.30;10.77;;;;;;;19.39;100.00;101292.59;5095468;28;20116;-52
2023/08/12 04:23:49;;;;;;;14.02;11.60;;;;;;;19.17;100.00;101257.50;5095573;28;20035;-50
2023/08/12 04:26:14;;;;;;;15.00;11.88;;;;;;;19.18;100.00;101257.38;5095755;28;20070;-54
2023/08/12 04:28:40;;;;;;;15.05;11.45;;;;;;;19.54;100.00;101326.38;5095238;28;20071;-52
2023/08/12 04:31:07;;;;;;;16.65;11.63;;;;;;;19.38;100.00;101296.22;5094356;28;20039;-51
2023/08/12 04:33:33;;;;;;;16.45;11.05;;;;;;;19.15;100.00;101252.22;5076776;28;20032;-52
2023/08/12 04:35:58;;;;;;;15.07;11.35;;;;;;;19.53;100.00;101311.28;5094837;28;20532;-51
2023/08/12 04:38:25;;;;;;;16.65;11.55;;;;;;;19.58;100.00;101327.91;5076646;28;20127;-50
2023/08/12 04:40:52;;;;;;;19.27;11.70;;;;;;;19.41;100.00;101296.88;5076923;28;20044;-55
2023/08/12 04:43:18;;;;;;;18.17;12.15;;;;;;;19.61;100.00;101314.38;5076948;28;20035;-55
2023/08/12 04:45:46;;;;;;;18.30;12.00;;;;;;;19.21;100.00;101246.50;5076701;28;20032;-55
2023/08/12 04:48:12;;;;;;;18.08;12.98;;;;;;;19.68;100.00;101313.00;5093345;28;20401;-51
2023/08/12 04:50:38;;;;;;;16.30;12.32;;;;;;;19.70;100.00;101319.13;5093676;28;20033;-51
2023/08/12 04:53:04;;;;;;;18.60;11.90;;;;;;;19.76;100.00;101304.53;5077009;28;20032;-52
2023/08/12 04:55:30;;;;;;;20.70;13.40;;;;;;;19.32;100.00;101227.19;5095001;28;20161;-52
2023/08/12 04:57:55;;;;;;;16.50;12.75;;;;;;;19.35;100.00;101210.97;5076464;28;20115;-52
2023/08/12 05:00:21;;;;;;;18.27;12.80;;;;;;;19.50;100.00;101236.72;5094431;28;20113;-50
2023/08/12 05:02:47;;;;;;;16.38;12.40;;;;;;;19.86;100.00;101289.63;5094728;28;20032;-53
2023/08/12 05:05:12;;;;;;;20.02;13.15;;;;;;;19.88;100.00;101282.38;5093722;28;20468;-50
2023/08/12 05:07:38;;;;;;;22.13;14.00;;;;;;;19.87;100.00;101278.84;5094531;28;20398;-51
2023/08/12 05:10:03;;;;;;;21.63;13.95;;;;;;;19.89;100.00;101286.75;5094293;28;20191;-49
2023/08/12 05:12:29;;;;;;;18.65;12.68;;;;;;;19.47;100.00;101221.75;5094508;28;20035;-49
2023/08/12 05:14:54;;;;;;;16.48;12.77;;;;;;;19.91;100.00;101285.69;5094379;28;20063;-50
2023/08/12 05:17:20;;;;;;;23.35;13.88;;;;;;;19.74;100.00;101269.88;5094265;28;20032;-50
2023/08/12 05:19:46;;;;;;;19.85;13.90;;;;;;;19.93;100.00;101296.31;5093719;28;20042;-48
2023/08/12 05:22:11;;;;;;;20.73;14.07;;;;;;;19.89;100.00;101302.78;5093840;28;20028;-47
2023/08/12 05:24:36;;;;;;;22.80;15.25;;;;;;;19.91;100.00;101300.88;5094763;28;20078;-47
2023/08/12 05:27:02;;;;;;;20.63;14.77;;;;;;;19.53;100.00;101233.84;5076200;28;20264;-47
2023/08/12 05:29:28;;;;;;;23.55;15.70;;;;;;;19.48;100.00;101242.16;5093969;28;20648;-45
2023/08/12 05:31:53;;;;;;;23.88;17.17;;;;;;;19.78;100.00;101306.16;5094038;28;20115;-49
2023/08/12 05:34:18;;;;;;;26.85;17.58;;;;;;;19.75;100.00;101311.69;5093916;28;20119;-49
2023/08/12 05:36:44;;;;;;;28.42;18.48;;;;;;;19.70;100.00;101295.09;5093730;28;20056;-53
2023/08/12 05:39:09;;;;;;;26.27;17.90;;;;;;;19.60;100.00;101294.81;5093522;28;20387;-50
2023/08/12 05:41:34;;;;;;;24.67;18.48;;;;;;;19.64;100.00;101296.31;5094000;28;20456;-52
2023/08/12 05:44:00;;;;;;;29.02;19.75;;;;;;;19.31;100.00;101239.66;5094391;28;20315;-55
2023/08/12 05:46:25;;;;;;;28.75;20.90;;;;;;;19.20;100.00;101219.94;5093866;28;20032;-57
2023/08/12 05:48:50;;;;;;;31.65;21.58;;;;;;;19.50;100.00;101272.28;5093745;28;20024;-47
2023/08/12 05:51:16;;;;;;;36.92;23.00;;;;;;;19.12;100.00;101217.72;5093661;28;20032;-50
2023/08/12 05:53:41;;;;;;;29.98;19.98;;;;;;;19.59;100.00;101305.56;5093933;28;20036;-55
2023/08/12 05:56:06;;;;;;;31.88;21.25;;;;;;;19.23;100.00;101249.97;5074935;28;20036;-54
2023/08/12 05:58:32;;;;;;;29.17;19.70;;;;;;;19.58;100.00;101306.53;5093665;28;20031;-51
2023/08/12 06:00:57;;;;;;;26.92;19.63;;;;;;;19.12;100.00;101232.91;5093163;28;20108;-57
2023/08/12 06:03:22;;;;;;;24.27;19.08;;;;;;;19.08;100.00;101222.41;5093615;28;20113;-51
2023/08/12 06:05:49;;;;;;;34.45;21.05;;;;;;;19.54;100.00;101297.00;5101378;28;20163;-51
2023/08/12 06:08:14;;;;;;;31.20;19.88;;;;;;;19.46;100.00;101281.47;5095783;28;20186;-53
2023/08/12 06:10:40;;;;;;;26.33;19.20;;;;;;;19.56;100.00;101287.94;5113605;28;20126;-54
2023/08/12 06:13:05;;;;;;;29.38;20.27;;;;;;;19.14;100.00;101210.50;5113975;28;20093;-52
2023/08/12 06:15:31;;;;;;;32.38;20.80;;;;;;;19.59;100.00;101287.75;5078356;28;20031;-52
2023/08/12 06:17:56;;;;;;;23.52;18.77;;;;;;;19.59;100.00;101287.75;5113501;28;20151;-52
2023/08/12 06:20:23;;;;;;;24.83;17.75;;;;;;;19.26;100.00;101238.25;5108533;28;20023;-51
2023/08/12 06:22:49;;;;;;;21.58;17.02;;;;;;;19.58;100.00;101291.34;5075229;28;20115;-57
2023/08/12 06:25:14;;;;;;;26.98;19.33;;;;;;;19.56;100.00;101303.94;5093286;28;20130;-54
2023/08/12 06:27:40;;;;;;;17.45;15.50;;;;;;;19.56;100.00;101298.63;5092732;28;20066;-51
2023/08/12 06:30:06;;;;;;;18.65;15.48;;;;;;;19.14;100.00;101222.97;5093058;28;20032;-53
2023/08/12 06:32:34;;;;;;;19.08;15.10;;;;;;;19.45;100.00;101268.19;5092750;28;20089;-52
2023/08/12 06:34:59;;;;;;;19.20;15.25;;;;;;;19.57;100.00;101295.00;5092877;28;20491;-51
2023/08/12 06:37:24;;;;;;;18.77;15.02;;;;;;;19.52;100.00;101285.56;5091892;28;20079;-52
2023/08/12 06:39:50;;;;;;;22.83;16.80;;;;;;;19.16;100.00;101213.94;5074692;28;20044;-52
2023/08/12 06:42:16;;;;;;;20.95;15.82;;;;;;;19.58;100.00;101282.50;5092870;28;20082;-55
2023/08/12 06:44:41;;;;;;;18.95;15.25;;;;;;;19.57;100.00;101287.00;5092631;28;20028;-56
2023/08/12 06:47:06;;;;;;;20.13;15.13;;;;;;;19.64;100.00;101296.31;5074806;28;20395;-56
2023/08/12 06:49:32;;;;;;;18.67;14.68;;;;;;;19.14;100.00;101199.84;5092625;28;20036;-53
2023/08/12 06:51:57;;;;;;;13.15;11.75;;;;;;;19.51;100.00;101262.47;5092515;28;20051;-55
2023/08/12 06:54:22;;;;;;;11.07;8.93;;;;;;;19.26;100.00;101203.53;5073950;28;20032;-61
2023/08/12 06:56:48;;;;;;;13.07;11.35;;;;;;;19.73;100.00;101284.19;5092587;28;20425;-56
2023/08/12 06:59:14;;;;;;;14.10;11.98;;;;;;;19.73;100.00;101288.69;5092995;28;20065;-51
2023/08/12 07:01:39;;;;;;;8.57;7.28;;;;;;;19.71;100.00;101290.59;5092514;28;20068;-55
2023/08/12 07:04:05;;;;;;;8.23;7.38;;;;;;;19.65;100.00;101282.03;5092370;28;20157;-57
2023/08/12 07:06:30;;;;;;;7.88;6.97;;;;;;;19.54;100.00;101271.16;5092477;28;20032;-53
2023/08/12 07:08:56;;;;;;;9.27;7.43;;;;;;;19.62;100.00;101297.38;5091892;28;20051;-55
2023/08/12 07:11:21;;;;;;;10.43;6.80;;;;;;;19.23;100.00;101246.44;5092192;28;20109;-56
2023/08/12 07:13:46;;;;;;;8.88;6.00;;;;;;;19.51;100.00;101313.22;5092150;28;20143;-53
2023/08/12 07:16:12;;;;;;;6.90;3.75;;;;;;;19.22;100.00;101325.63;5074268;28;20552;-53
2023/08/12 07:18:37;;;;;;;8.63;3.72;;;;;;;18.32;100.00;101266.09;5074239;28;20044;-55
2023/08/12 07:21:03;;;;;;;7.03;3.72;;;;;;;18.32;100.00;101302.53;5074661;28;20044;-54
2023/08/12 07:23:29;;;;;;;6.80;3.35;;;;;;;18.29;100.00;101326.69;5057605;28;20032;-53
2023/08/12 07:25:54;;;;;;;6.88;3.25;;;;;;;17.72;100.00;101237.56;5073458;28;20119;-50
2023/08/12 07:28:19;;;;;;;6.72;3.03;;;;;;;17.95;100.00;101285.06;5092222;28;20295;-51
2023/08/12 07:30:45;;;;;;;6.85;3.40;;;;;;;18.06;100.00;101313.81;5092152;28;20035;-54
2023/08/12 07:33:10;;;;;;;6.47;2.78;;;;;;;17.89;100.00;101293.44;5074092;28;20032;-56
2023/08/12 07:35:35;;;;;;;6.68;2.50;;;;;;;17.91;100.00;101316.38;5092288;28;20032;-53
2023/08/12 07:38:01;;;;;;;10.02;2.70;;;;;;;17.87;100.00;101308.63;5091990;28;20051;-53
2023/08/12 07:40:26;;;;;;;8.35;2.70;;;;;;;17.88;100.00;101315.69;5092055;28;20032;-56
2023/08/12 07:42:52;;;;;;;9.00;3.15;;;;;;;17.94;100.00;101316.22;5091516;28;20035;-54
2023/08/12 07:45:17;;;;;;;9.05;2.97;;;;;;;17.67;100.00;101264.47;5092063;28;20445;-52
2023/08/12 07:47:42;;;;;;;6.80;3.35;;;;;;;17.24;100.00;101223.31;5091717;28;20036;-51
2023/08/12 07:50:08;;;;;;;8.23;2.85;;;;;;;17.98;100.00;101338.19;5092257;28;20047;-54
2023/08/12 07:52:33;;;;;;;6.40;3.17;;;;;;;17.66;100.00;101272.53;5057082;28;20051;-50
2023/08/12 07:54:58;;;;;;;5.50;3.85;;;;;;;17.69;100.00;101280.34;5091737;28;20081;-52
2023/08/12 07:57:24;;;;;;;5.05;2.85;;;;;;;18.04;100.00;101339.69;5091607;28;20032;-51
2023/08/12 07:59:52;;;;;;;7.40;2.70;;;;;;;18.06;100.00;101340.44;5091471;28;20039;-52
2023/08/12 08:02:18;;;;;;;4.90;2.42;;;;;;;18.12;100.00;101354.28;5091800;28;20060;-55
2023/08/12 08:04:43;;;;;;;5.70;2.33;;;;;;;17.71;100.00;101263.34;5091910;28;20063;-51
2023/08/12 08:07:08;;;;;;;4.63;2.03;;;;;;;18.17;100.00;101340.69;5091981;28;20089;-54
2023/08/12 08:09:34;;;;;;;9.95;2.67;;;;;;;17.88;100.00;101289.03;5091966;28;20036;-53
2023/08/12 08:12:00;;;;;;;10.68;3.00;;;;;;;18.13;100.00;101308.03;5092135;28;20085;-54
2023/08/12 08:14:26;;;;;;;7.18;3.00;;;;;;;18.33;100.00;101330.91;5091712;28;20043;-51
2023/08/12 08:16:51;;;;;;;5.43;2.58;;;;;;;18.26;100.00;101301.06;5091154;28;20445;-54
2023/08/12 08:19:16;;;;;;;4.20;2.25;;;;;;;18.04;100.00;101249.94;5091427;28;20036;-54
2023/08/12 08:21:42;;;;;;;9.32;3.05;;;;;;;18.54;100.00;101324.38;5091398;28;20082;-54
2023/08/12 08:24:08;;;;;;;8.40;2.50;;;;;;;17.82;100.00;101196.19;5076019;28;20089;-53
2023/08/12 08:26:34;;;;;;;8.50;2.78;;;;;;;18.44;100.00;101292.03;5095367;28;20036;-51
2023/08/12 08:28:59;;;;;;;5.60;2.03;;;;;;;18.74;100.00;101317.91;5095314;28;20040;-52
2023/08/12 08:31:25;;;;;;;6.55;2.15;;;;;;;18.93;100.00;101350.53;5093507;28;20440;-52
2023/08/12 08:33:50;;;;;;;5.93;2.60;;;;;;;18.72;100.00;101288.63;5095361;28;20035;-51
2023/08/12 08:36:16;;;;;;;5.10;2.15;;;;;;;19.25;100.00;101333.47;5095359;28;20080;-55
2023/08/12 08:38:42;;;;;;;5.85;2.15;;;;;;;19.36;100.00;101319.44;5095324;28;20052;-54
2023/08/12 08:41:09;;;;;;;7.32;1.95;;;;;;;19.63;100.00;101337.34;5095384;28;20394;-54
2023/08/12 08:43:35;;;;;;;4.15;1.73;;;;;;;19.42;100.00;101274.59;5095182;28;20032;-52
2023/08/12 08:46:01;;;;;;;3.50;1.95;;;;;;;19.69;100.00;101266.66;5094965;28;20058;-55
2023/08/12 08:48:27;;;;;;;9.55;1.90;;;;;;;20.20;100.00;101323.91;5095008;28;20483;-53
2023/08/12 08:50:53;;;;;;;4.85;1.88;;;;;;;20.03;100.00;101257.34;5094264;28;20122;-56
2023/08/12 08:53:19;;;;;;;5.15;1.90;;;;;;;20.62;100.00;101315.78;5076688;28;20024;-54
2023/08/12 08:55:45;;;;;;;5.65;1.92;;;;;;;20.62;100.00;101254.28;5076806;28;20040;-51
2023/08/12 08:58:10;;;;;;;6.25;1.83;;;;;;;21.02;100.00;101260.44;5094664;28;20538;-54
2023/08/12 09:00:38;;;;;;;3.80;1.77;;;;;;;21.52;100.00;101274.81;5094741;28;20043;-52
2023/08/12 09:03:05;;;;;;;8.10;1.80;;;;;;;22.59;100.00;101357.25;5076762;28;20064;-52
2023/08/12 09:05:31;;;;;;;5.85;2.00;;;;;;;23.30;100.00;101352.66;5076641;28;20028;-54
2023/08/12 09:07:59;;;;;;;6.32;1.92;;;;;;;23.66;100.00;101367.78;5059028;28;20028;-52
2023/08/12 09:10:26;;;;;;;6.82;1.77;;;;;;;24.01;100.00;101303.16;5076667;28;20032;-49
2023/08/12 09:12:52;;;;;;;3.83;1.52;;;;;;;24.88;100.00;101324.59;5094555;28;20036;-51
2023/08/12 09:15:18;;;;;;;4.03;1.80;;;;;;;25.84;100.00;101389.94;5076247;28;20089;-53
2023/08/12 09:17:44;;;;;;;7.65;1.77;;;;;;;26.03;100.00;101328.00;5076444;28;20032;-51
2023/08/12 09:20:13;;;;;;;7.22;2.47;;;;;;;26.47;100.00;101353.69;5094544;28;20043;-53
2023/08/12 09:22:40;;;;;;;6.03;1.95;;;;;;;26.36;100.00;101407.78;5094487;28;20024;-52
2023/08/12 09:25:06;;;;;;;3.92;1.65;;;;;;;25.49;100.00;101436.13;5075443;28;20119;-51
2023/08/12 09:27:32;;;;;;;2.95;1.35;;;;;;;24.75;100.00;101428.88;5094483;28;20071;-53
2023/08/12 09:29:58;;;;;;;6.57;3.42;;;;;;;24.23;100.00;101358.75;5094224;28;20071;-54
2023/08/12 09:32:23;;;;;;;6.78;2.20;;;;;;;24.41;100.00;101454.13;5059569;28;20403;-50
2023/08/12 09:34:53;;;;;;;6.20;2.55;;;;;;;24.49;100.00;101389.78;5093292;28;20043;-50
2023/08/12 09:37:19;;;;;;;3.92;1.52;;;;;;;25.53;100.00;101450.19;5075906;28;20306;-54
2023/08/12 09:39:47;;;;;;;4.22;1.73;;;;;;;25.53;100.00;101413.31;5075784;28;20467;-51
2023/08/12 09:42:12;;;;;;;7.90;2.00;;;;;;;24.99;100.00;101404.47;5075261;28;20080;-53
2023/08/12 09:44:38;;;;;;;4.97;1.33;;;;;;;24.84;100.00;101444.31;5075338;28;20479;-54
2023/08/12 09:47:05;;;;;;;5.45;1.80;;;;;;;24.44;100.00;101456.56;5093879;28;20205;-51
2023/08/12 09:49:30;;;;;;;4.72;1.85;;;;;;;23.55;100.00;101388.41;5075999;28;20056;-53
2023/08/12 09:51:56;;;;;;;5.40;1.70;;;;;;;23.08;100.00;101346.38;5093479;28;20065;-56
2023/08/12 09:54:21;;;;;;;5.78;1.92;;;;;;;23.39;100.00;101451.41;5093866;28;20119;-49
2023/08/12 09:56:56;;;;;;;3.92;1.95;;;;;;;22.83;100.00;101369.72;5075248;28;20046;-52
2023/08/12 09:59:22;;;;;;;6.97;1.85;;;;;;;23.31;100.00;101437.66;5062938;28;20031;-51
2023/08/12 10:01:50;;;;;;;9.45;1.70;;;;;;;23.74;100.00;101442.44;5093358;28;20086;-49
2023/08/12 10:04:17;;;;;;;3.63;2.00;;;;;;;24.36;100.00;101419.53;5075771;28;20114;-52
2023/08/12 10:06:43;;;;;;;5.72;1.92;;;;;;;25.27;100.00;101438.03;5093619;28;20032;-52
2023/08/12 10:09:09;;;;;;;5.43;1.70;;;;;;;26.16;100.00;101441.09;5075227;28;20043;-52
2023/08/12 10:11:35;;;;;;;6.70;2.08;;;;;;;26.62;100.00;101446.78;5074979;28;20040;-54
2023/08/12 10:14:03;;;;;;;7.43;2.42;;;;;;;26.83;100.00;101454.81;5075182;28;20032;-55
2023/08/12 10:16:29;;;;;;;9.40;1.92;;;;;;;26.83;100.00;101406.22;5111015;28;20475;-48
2023/08/12 10:18:56;;;;;;;4.60;2.25;;;;;;;27.59;100.00;101459.44;5113596;28;20119;-49
2023/08/12 10:21:22;;;;;;;5.78;1.85;;;;;;;28.00;100.00;101436.56;5095500;28;20058;-55
2023/08/12 10:23:48;;;;;;;6.47;2.20;;;;;;;28.51;100.00;101479.44;5095222;28;20507;-53
2023/08/12 10:26:14;;;;;;;5.75;2.33;;;;;;;29.01;100.00;101475.31;5095215;28;20119;-48
2023/08/12 10:28:39;;;;;;;4.95;2.22;;;;;;;28.76;100.00;101421.88;5113724;28;20031;-49
2023/08/12 10:31:05;;;;;;;5.72;1.98;;;;;;;28.72;100.00;101452.13;5098213;28;20475;-51
2023/08/12 10:33:38;;;;;;;10.13;2.38;;;;;;;28.88;100.00;101433.34;5093335;28;20085;-52
2023/08/12 10:36:03;;;;;;;10.38;2.60;;;;;;;29.80;100.00;101482.69;5093055;28;20165;-50
2023/08/12 10:38:29;;;;;;;6.30;1.85;;;;;;;30.08;100.00;101490.56;5092827;28;20130;-48
2023/08/12 10:41:23;;;;;;;8.27;2.28;;;;;;;30.21;100.00;101465.66;5092540;28;20055;-53
2023/08/12 10:43:49;;;;;;;8.88;2.80;;;;;;;30.33;100.00;101437.22;5059496;28;20036;-52
2023/08/12 10:46:35;;;;;;;8.07;2.63;;;;;;;30.45;100.00;101475.81;5079875;28;20092;-49
2023/08/12 10:49:10;;;;;;;5.90;2.20;;;;;;;29.78;100.00;101384.28;5112790;28;20490;-54
2023/08/12 10:51:49;;;;;;;6.18;2.20;;;;;;;30.37;100.00;101479.34;5077869;28;20035;-55
2023/08/12 10:54:20;;;;;;;8.65;2.65;;;;;;;30.32;100.00;101489.84;5113302;28;20114;-50
2023/08/12 10:57:05;;;;;;;7.05;2.67;;;;;;;30.44;100.00;101485.00;5113080;28;20046;-50
2023/08/12 10:59:45;;;;;;;7.53;2.40;;;;;;;30.28;100.00;101482.16;5112857;28;20036;-52
2023/08/12 11:02:28;;;;;;;4.47;2.10;;;;;;;29.80;100.00;101429.25;5100779;28;20032;-55
2023/08/12 11:05:04;;;;;;;7.03;2.55;;;;;;;30.50;100.00;101479.75;5092689;28;20854;-54
2023/08/12 11:07:39;;;;;;;5.07;2.28;;;;;;;31.03;100.00;101482.19;5092560;28;20487;-54